createdAt,value
2023-03-16T00:02:05.197Z,84676.38
2023-03-16T00:04:37.849Z,84599.13
2023-03-16T00:07:10.135Z,84616.00
2023-03-16T00:09:43.387Z,84636.25
2023-03-16T00:12:15.994Z,84675.66
2023-03-16T00:14:45.177Z,84655.41
2023-03-16T00:17:19.421Z,84587.38
2023-03-16T00:19:55.522Z,84662.16
2023-03-16T00:22:30.910Z,84661.59
2023-03-16T00:24:58.541Z,84665.59
2023-03-16T00:27:26.608Z,84658.06
2023-03-16T00:29:57.176Z,84666.09
2023-03-16T00:32:26.392Z,84613.88
2023-03-16T00:34:53.949Z,84659.84
2023-03-16T00:37:23.715Z,84641.53
2023-03-16T00:39:51.642Z,84625.13
2023-03-16T00:42:20.215Z,84657.63
2023-03-16T00:44:47.767Z,84659.09
2023-03-16T00:47:15.542Z,84664.66
2023-03-16T00:49:44.447Z,84645.72
2023-03-16T00:52:16.286Z,84649.81
2023-03-16T00:54:44.923Z,84671.59
2023-03-16T00:57:16.530Z,84665.41
2023-03-16T00:59:43.479Z,84636.75
2023-03-16T01:02:11.553Z,84659.09
2023-03-16T01:04:40.160Z,84671.41
2023-03-16T01:07:09.151Z,84650.50
2023-03-16T01:09:37.165Z,84687.94
2023-03-16T01:12:11.313Z,84681.75
2023-03-16T01:14:38.889Z,84668.72
2023-03-16T01:17:08.719Z,84676.16
2023-03-16T01:19:37.561Z,84662.16
2023-03-16T01:22:06.277Z,84681.03
2023-03-16T01:24:37.571Z,84684.50
2023-03-16T01:27:05.230Z,84659.38
2023-03-16T01:29:33.427Z,84643.78
2023-03-16T01:32:01.431Z,84673.00
2023-03-16T01:34:28.738Z,84605.03
2023-03-16T01:36:56.399Z,84660.59
2023-03-16T01:39:28.098Z,84685.09
2023-03-16T01:41:55.280Z,84679.59
2023-03-16T01:44:30.738Z,84675.44
2023-03-16T01:47:02.146Z,84646.94
2023-03-16T01:49:34.221Z,84681.66
2023-03-16T01:52:19.507Z,84685.22
2023-03-16T01:54:50.787Z,84556.59
2023-03-16T01:57:30.607Z,84682.78
2023-03-16T02:00:10.386Z,84653.47
2023-03-16T02:03:02.193Z,84674.41
2023-03-16T02:06:04.059Z,84672.97
2023-03-16T02:08:33.900Z,84668.31
2023-03-16T02:11:01.272Z,84657.34
2023-03-16T02:13:47.013Z,84628.22
2023-03-16T02:16:19.678Z,84655.47
2023-03-16T02:18:51.070Z,84656.84
2023-03-16T02:21:27.157Z,84679.19
2023-03-16T02:23:55.026Z,84653.00
2023-03-16T02:26:31.332Z,84686.78
2023-03-16T02:29:06.893Z,84673.16
2023-03-16T02:31:34.411Z,84648.03
2023-03-16T02:34:02.475Z,84678.69
2023-03-16T02:36:30.873Z,84697.66
2023-03-16T02:38:58.002Z,84679.44
2023-03-16T02:41:26.376Z,84666.50
2023-03-16T02:44:10.972Z,84697.66
2023-03-16T02:46:39.349Z,84696.41
2023-03-16T02:49:27.736Z,84698.34
2023-03-16T02:51:54.907Z,84667.31
2023-03-16T02:54:22.084Z,84678.75
2023-03-16T02:56:49.368Z,84654.38
2023-03-16T02:59:20.717Z,84651.84
2023-03-16T03:01:48.978Z,84713.63
2023-03-16T03:04:16.729Z,84684.34
2023-03-16T03:06:44.444Z,84659.94
2023-03-16T03:09:14.722Z,84623.31
2023-03-16T03:11:42.764Z,84636.94
2023-03-16T03:14:10.164Z,84665.56
2023-03-16T03:16:39.466Z,84718.41
2023-03-16T03:19:06.597Z,84719.69
2023-03-16T03:21:36.962Z,84684.50
2023-03-16T03:24:04.270Z,84717.75
2023-03-16T03:26:34.239Z,84719.84
2023-03-16T03:29:02.627Z,84721.34
2023-03-16T03:31:29.721Z,84721.31
2023-03-16T03:33:57.786Z,84701.63
2023-03-16T03:36:24.964Z,84727.28
2023-03-16T03:38:54.906Z,84722.56
2023-03-16T03:41:22.667Z,84683.94
2023-03-16T03:43:51.628Z,84633.13
2023-03-16T03:46:19.302Z,84721.50
2023-03-16T03:48:46.468Z,84709.78
2023-03-16T03:51:13.685Z,84710.41
2023-03-16T03:53:46.363Z,84686.69
2023-03-16T03:56:26.529Z,84733.03
2023-03-16T03:58:53.761Z,84699.75
2023-03-16T04:01:33.706Z,84678.03
2023-03-16T04:04:03.190Z,84674.66
2023-03-16T04:06:30.250Z,84659.00
2023-03-16T04:08:57.301Z,84678.13
2023-03-16T04:11:26.874Z,84737.75
2023-03-16T04:13:54.195Z,84691.63
2023-03-16T04:16:22.313Z,84695.78
2023-03-16T04:18:54.597Z,84744.59
2023-03-16T04:21:24.239Z,84751.50
2023-03-16T04:23:54.637Z,84757.75
2023-03-16T04:26:26.728Z,84725.75
2023-03-16T04:28:54.428Z,84762.53
2023-03-16T04:31:21.689Z,84710.72
2023-03-16T04:33:49.546Z,84698.75
2023-03-16T04:36:17.063Z,84689.47
2023-03-16T04:38:44.577Z,84758.09
2023-03-16T04:41:12.618Z,84751.22
2023-03-16T04:43:47.631Z,84725.47
2023-03-16T04:46:20.811Z,84754.81
2023-03-16T04:48:48.049Z,84737.19
2023-03-16T04:51:15.446Z,84718.81
2023-03-16T04:53:51.726Z,84761.66
2023-03-16T04:56:24.649Z,84707.41
2023-03-16T04:59:00.605Z,84772.56
2023-03-16T05:01:33.734Z,84725.69
2023-03-16T05:04:03.242Z,84771.22
2023-03-16T05:06:33.400Z,84777.16
2023-03-16T05:09:01.981Z,84754.84
2023-03-16T05:11:29.990Z,84671.31
2023-03-16T05:14:00.052Z,84744.06
2023-03-16T05:16:27.494Z,84785.16
2023-03-16T05:18:57.683Z,84792.69
2023-03-16T05:21:26.659Z,84499.91
2023-03-16T05:24:07.522Z,84700.31
2023-03-16T05:26:35.300Z,84713.41
2023-03-16T05:29:04.961Z,84729.59
2023-03-16T05:31:33.750Z,84735.66
2023-03-16T05:34:03.389Z,84808.41
2023-03-16T05:36:30.387Z,84766.41
2023-03-16T05:39:05.002Z,84773.94
2023-03-16T05:41:36.761Z,84799.16
2023-03-16T05:44:22.582Z,84810.13
2023-03-16T05:47:03.902Z,84720.44
2023-03-16T05:49:33.017Z,84821.16
2023-03-16T05:52:04.426Z,84792.03
2023-03-16T05:54:34.078Z,84764.72
2023-03-16T05:57:01.221Z,84780.56
2023-03-16T05:59:28.761Z,84862.81
2023-03-16T06:01:57.778Z,84838.91
2023-03-16T06:04:25.012Z,84759.28
2023-03-16T06:06:56.807Z,84829.47
2023-03-16T06:09:26.976Z,84843.19
2023-03-16T06:11:54.287Z,84775.28
2023-03-16T06:14:21.637Z,84849.50
2023-03-16T06:16:50.100Z,84852.41
2023-03-16T06:19:17.415Z,84837.47
2023-03-16T06:21:49.384Z,84855.84
2023-03-16T06:24:17.846Z,84780.31
2023-03-16T06:26:45.151Z,84809.69
2023-03-16T06:29:13.381Z,84852.69
2023-03-16T06:31:41.526Z,84867.72
2023-03-16T06:34:08.624Z,84847.97
2023-03-16T06:36:38.952Z,84831.00
2023-03-16T06:39:09.815Z,84890.91
2023-03-16T06:41:42.750Z,84881.34
2023-03-16T06:44:11.833Z,84856.19
2023-03-16T06:46:50.388Z,84822.78
2023-03-16T06:49:17.950Z,84897.06
2023-03-16T06:51:47.990Z,84874.59
2023-03-16T06:54:15.472Z,84862.22
2023-03-16T06:56:45.234Z,84857.50
2023-03-16T06:59:13.282Z,84856.88
2023-03-16T07:01:40.341Z,84904.53
2023-03-16T07:04:07.338Z,84875.22
2023-03-16T07:06:35.004Z,84844.63
2023-03-16T07:09:02.285Z,84854.97
2023-03-16T07:11:32.717Z,84919.81
2023-03-16T07:14:00.071Z,84904.09
2023-03-16T07:16:28.595Z,84928.66
2023-03-16T07:18:58.664Z,84887.03
2023-03-16T07:21:25.888Z,84854.34
2023-03-16T07:23:53.410Z,84937.56
2023-03-16T07:26:24.839Z,84902.13
2023-03-16T07:28:59.276Z,84926.72
2023-03-16T07:31:26.339Z,84941.00
2023-03-16T07:33:55.354Z,84940.34
2023-03-16T07:36:31.883Z,84922.66
2023-03-16T07:39:01.645Z,84961.53
2023-03-16T07:41:29.702Z,84918.56
2023-03-16T07:44:14.378Z,84956.78
2023-03-16T07:46:41.703Z,84960.94
2023-03-16T07:49:10.873Z,84930.22
2023-03-16T07:51:39.320Z,84962.94
2023-03-16T07:54:07.216Z,84969.09
2023-03-16T07:56:48.189Z,84922.72
2023-03-16T07:59:27.359Z,84922.75
2023-03-16T08:01:54.681Z,84963.66
2023-03-16T08:04:22.438Z,84966.38
2023-03-16T08:07:00.481Z,84954.13
2023-03-16T08:09:35.946Z,84969.16
2023-03-16T08:12:06.600Z,84976.63
2023-03-16T08:14:36.877Z,84971.81
2023-03-16T08:17:15.287Z,84930.88
2023-03-16T08:19:43.719Z,84978.63
2023-03-16T08:22:11.556Z,84982.72
2023-03-16T08:24:42.848Z,84996.34
2023-03-16T08:27:12.179Z,84945.16
2023-03-16T08:29:43.142Z,84904.88
2023-03-16T08:32:14.645Z,84993.66
2023-03-16T08:34:44.085Z,84975.91
2023-03-16T08:37:11.769Z,84989.59
2023-03-16T08:39:42.328Z,84988.88
2023-03-16T08:42:15.352Z,84936.31
2023-03-16T08:44:47.910Z,84938.31
2023-03-16T08:47:15.219Z,84990.88
2023-03-16T08:49:44.927Z,85004.63
2023-03-16T08:52:16.036Z,84999.13
2023-03-16T08:54:59.865Z,84977.97
2023-03-16T08:57:28.720Z,84965.66
2023-03-16T08:59:55.978Z,84960.84
2023-03-16T09:02:22.895Z,84992.97
2023-03-16T09:04:50.091Z,85002.53
2023-03-16T09:07:17.345Z,84973.16
2023-03-16T09:09:45.242Z,84994.25
2023-03-16T09:12:12.892Z,85005.19
2023-03-16T09:14:39.893Z,84979.25
2023-03-16T09:17:12.011Z,84929.44
2023-03-16T09:19:57.744Z,84948.53
2023-03-16T09:22:26.322Z,84889.81
2023-03-16T09:24:53.355Z,85007.75
2023-03-16T09:27:21.029Z,84975.66
2023-03-16T09:29:49.722Z,84902.69
2023-03-16T09:32:17.019Z,85016.63
2023-03-16T09:34:44.927Z,85017.25
2023-03-16T09:37:17.731Z,84986.72
2023-03-16T09:39:45.815Z,85016.69
2023-03-16T09:42:36.630Z,84996.34
2023-03-16T09:45:10.541Z,85007.91
2023-03-16T09:47:38.750Z,84964.84
2023-03-16T09:50:09.953Z,84938.22
2023-03-16T09:53:14.285Z,85027.53
2023-03-16T09:55:45.749Z,85031.63
2023-03-16T09:58:18.608Z,84960.59
2023-03-16T10:00:45.822Z,85027.47
2023-03-16T10:03:31.349Z,84979.75
2023-03-16T10:06:04.211Z,85030.16
2023-03-16T10:08:39.507Z,84985.06
2023-03-16T10:11:31.787Z,85038.34
2023-03-16T10:14:05.062Z,85030.06
2023-03-16T10:16:32.901Z,85025.94
2023-03-16T10:19:13.141Z,85023.16
2023-03-16T10:21:41.797Z,85031.53
2023-03-16T10:24:34.922Z,84997.34
2023-03-16T10:27:04.940Z,84978.88
2023-03-16T10:29:37.100Z,84967.22
2023-03-16T10:32:19.824Z,85031.97
2023-03-16T10:35:01.059Z,84987.63
2023-03-16T10:37:31.281Z,85004.00
2023-03-16T10:40:00.906Z,85040.00
2023-03-16T10:42:28.582Z,85037.28
2023-03-16T10:45:01.760Z,84937.16
2023-03-16T10:47:34.271Z,85037.34
2023-03-16T10:50:14.464Z,85001.09
2023-03-16T10:52:45.475Z,85038.03
2023-03-16T10:55:24.826Z,85035.28
2023-03-16T10:57:55.307Z,85022.94
2023-03-16T11:00:41.448Z,85031.13
2023-03-16T11:03:39.236Z,85031.03
2023-03-16T11:06:16.565Z,85026.13
2023-03-16T11:08:45.658Z,85020.00
2023-03-16T11:11:21.578Z,85003.66
2023-03-16T11:13:49.327Z,85028.94
2023-03-16T11:16:28.370Z,84977.75
2023-03-16T11:19:04.991Z,85023.97
2023-03-16T11:21:42.401Z,85021.94
2023-03-16T11:24:23.819Z,84969.53
2023-03-16T11:26:56.264Z,85018.38
2023-03-16T11:29:34.014Z,84962.59
2023-03-16T11:32:05.961Z,84989.13
2023-03-16T11:34:35.571Z,85028.06
2023-03-16T11:37:21.850Z,85028.03
2023-03-16T11:40:19.614Z,85020.53
2023-03-16T11:42:56.424Z,85018.41
2023-03-16T11:45:36.676Z,85023.19
2023-03-16T11:48:36.880Z,85024.56
2023-03-16T11:51:43.501Z,84973.38
2023-03-16T11:54:20.235Z,85026.50
2023-03-16T11:56:53.235Z,84951.53
2023-03-16T11:59:40.878Z,85022.38
2023-03-16T12:02:09.429Z,85025.09
2023-03-16T12:05:14.680Z,85027.13
2023-03-16T12:08:04.486Z,85028.56
2023-03-16T12:10:45.780Z,84934.31
2023-03-16T12:13:31.084Z,85018.16
2023-03-16T12:16:11.875Z,84991.56
2023-03-16T12:18:49.779Z,84967.75
2023-03-16T12:21:21.833Z,85025.69
2023-03-16T12:24:04.756Z,85029.06
2023-03-16T12:26:39.935Z,85024.91
2023-03-16T12:29:35.340Z,84988.22
2023-03-16T12:32:37.291Z,85030.28
2023-03-16T12:35:22.431Z,85003.06
2023-03-16T12:38:14.064Z,85035.78
2023-03-16T12:40:55.437Z,85029.03
2023-03-16T12:43:51.571Z,85026.94
2023-03-16T12:46:22.398Z,85039.88
2023-03-16T12:48:54.374Z,84972.38
2023-03-16T12:51:45.353Z,84970.31
2023-03-16T12:54:25.381Z,85011.28
2023-03-16T12:57:00.253Z,85035.78
2023-03-16T12:59:36.591Z,85053.50
2023-03-16T13:02:07.151Z,85022.06
2023-03-16T13:04:39.958Z,85049.38
2023-03-16T13:07:10.636Z,85050.00
2023-03-16T13:09:45.385Z,84969.59
2023-03-16T13:12:26.119Z,85050.63
2023-03-16T13:14:57.174Z,85054.66
2023-03-16T13:17:30.161Z,85031.56
2023-03-16T13:20:30.320Z,85056.81
2023-03-16T13:23:24.163Z,84994.81
2023-03-16T13:26:11.237Z,85015.97
2023-03-16T13:28:39.423Z,85068.38
2023-03-16T13:31:22.521Z,85052.03
2023-03-16T13:33:54.770Z,85060.97
2023-03-16T13:36:22.096Z,84995.59
2023-03-16T13:39:14.101Z,85034.31
2023-03-16T13:41:43.391Z,85039.78
2023-03-16T13:44:19.013Z,85033.03
2023-03-16T13:46:49.123Z,85062.94
2023-03-16T13:49:16.438Z,85073.94
2023-03-16T13:51:43.942Z,84963.53
2023-03-16T13:54:30.823Z,85070.63
2023-03-16T13:57:03.041Z,85085.66
2023-03-16T13:59:31.647Z,85084.94
2023-03-16T14:02:02.088Z,85065.81
2023-03-16T14:04:32.467Z,85090.63
2023-03-16T14:07:02.078Z,85096.22
2023-03-16T14:09:33.517Z,85094.84
2023-03-16T14:12:03.873Z,85101.69
2023-03-16T14:14:39.557Z,85081.19
2023-03-16T14:17:13.673Z,85092.13
2023-03-16T14:19:48.540Z,85065.63
2023-03-16T14:22:19.612Z,85100.41
2023-03-16T14:24:54.163Z,85103.41
2023-03-16T14:27:28.942Z,85110.19
2023-03-16T14:30:15.305Z,85110.88
2023-03-16T14:32:53.952Z,85082.88
2023-03-16T14:35:22.244Z,85107.47
2023-03-16T14:37:52.206Z,85062.47
2023-03-16T14:40:22.177Z,85114.34
2023-03-16T14:42:49.507Z,85069.34
2023-03-16T14:45:17.796Z,85046.13
2023-03-16T14:47:47.115Z,85101.38
2023-03-16T14:50:24.149Z,85080.25
2023-03-16T14:52:54.317Z,85108.94
2023-03-16T14:55:23.819Z,85115.84
2023-03-16T14:57:54.172Z,85136.41
2023-03-16T15:00:23.164Z,85031.34
2023-03-16T15:03:06.544Z,85131.53
2023-03-16T15:05:42.444Z,85124.34
2023-03-16T15:08:24.042Z,85149.56
2023-03-16T15:10:53.031Z,85102.47
2023-03-16T15:13:35.052Z,85148.31
2023-03-16T15:16:04.577Z,85155.84
2023-03-16T15:18:33.706Z,85127.19
2023-03-16T15:21:02.424Z,85101.31
2023-03-16T15:23:31.057Z,85157.34
2023-03-16T15:26:03.038Z,85139.66
2023-03-16T15:28:30.426Z,85075.47
2023-03-16T15:30:59.644Z,85086.38
2023-03-16T15:33:27.421Z,85107.56
2023-03-16T15:35:57.353Z,85120.47
2023-03-16T15:38:31.597Z,85143.78
2023-03-16T15:40:59.256Z,85147.34
2023-03-16T15:43:29.175Z,85100.88
2023-03-16T15:45:58.959Z,85122.81
2023-03-16T15:48:29.663Z,85183.78
2023-03-16T15:51:00.929Z,85186.56
2023-03-16T15:53:36.871Z,85193.38
2023-03-16T15:56:08.453Z,85150.34
2023-03-16T15:58:38.266Z,85187.97
2023-03-16T16:01:07.797Z,85164.72
2023-03-16T16:03:35.151Z,85140.13
2023-03-16T16:06:02.246Z,85159.28
2023-03-16T16:08:29.215Z,85110.06
2023-03-16T16:10:56.848Z,85196.25
2023-03-16T16:13:43.144Z,85209.94
2023-03-16T16:16:17.121Z,85125.19
2023-03-16T16:18:45.202Z,85186.03
2023-03-16T16:21:25.350Z,85182.63
2023-03-16T16:23:53.073Z,85217.53
2023-03-16T16:26:48.254Z,85192.22
2023-03-16T16:29:19.861Z,85226.44
2023-03-16T16:31:46.837Z,85234.66
2023-03-16T16:34:17.338Z,85204.53
2023-03-16T16:36:45.104Z,85229.16
2023-03-16T16:39:12.750Z,85168.91
2023-03-16T16:41:42.399Z,85253.16
2023-03-16T16:44:19.823Z,85257.94
2023-03-16T16:46:49.469Z,85194.91
2023-03-16T16:49:22.821Z,85203.81
2023-03-16T16:51:50.572Z,85203.78
2023-03-16T16:54:29.838Z,85235.97
2023-03-16T16:57:03.195Z,85260.63
2023-03-16T16:59:33.372Z,85259.19
2023-03-16T17:02:03.452Z,85254.38
2023-03-16T17:04:30.858Z,85229.06
2023-03-16T17:07:01.999Z,85259.19
2023-03-16T17:09:30.422Z,85212.59
2023-03-16T17:12:02.770Z,85278.34
2023-03-16T17:14:31.589Z,85264.63
2023-03-16T17:17:02.819Z,85286.50
2023-03-16T17:19:30.082Z,85259.06
2023-03-16T17:21:58.583Z,85246.06
2023-03-16T17:24:26.045Z,85293.31
2023-03-16T17:26:56.198Z,85258.38
2023-03-16T17:29:27.787Z,85294.03
2023-03-16T17:31:54.895Z,85265.78
2023-03-16T17:34:24.264Z,85304.91
2023-03-16T17:36:56.611Z,85321.31
2023-03-16T17:39:27.235Z,85313.75
2023-03-16T17:41:58.726Z,85320.56
2023-03-16T17:44:31.362Z,85204.72
2023-03-16T17:46:58.817Z,85330.16
2023-03-16T17:49:28.734Z,85279.44
2023-03-16T17:51:56.044Z,85332.25
2023-03-16T17:54:23.150Z,85304.16
2023-03-16T17:56:55.265Z,85304.13
2023-03-16T17:59:23.340Z,85274.00
2023-03-16T18:01:50.744Z,85289.72
2023-03-16T18:04:23.338Z,85291.81
2023-03-16T18:06:51.383Z,85339.81
2023-03-16T18:09:20.587Z,85321.97
2023-03-16T18:11:50.165Z,85352.81
2023-03-16T18:14:39.930Z,85348.75
2023-03-16T18:17:26.920Z,85311.03
2023-03-16T18:19:54.843Z,85306.94
2023-03-16T18:22:24.816Z,85350.81
2023-03-16T18:24:54.098Z,85344.53
2023-03-16T18:27:22.464Z,85339.78
2023-03-16T18:29:49.580Z,85320.53
2023-03-16T18:32:24.127Z,85362.22
2023-03-16T18:34:52.987Z,85362.84
2023-03-16T18:37:23.189Z,85318.84
2023-03-16T18:39:51.660Z,85313.34
2023-03-16T18:42:23.953Z,85351.72
2023-03-16T18:44:51.233Z,85375.00
2023-03-16T18:47:22.834Z,85274.00
2023-03-16T18:49:53.493Z,85319.97
2023-03-16T18:52:23.844Z,85368.13
2023-03-16T18:54:53.105Z,85335.00
2023-03-16T18:57:25.642Z,85374.88
2023-03-16T18:59:53.086Z,85360.34
2023-03-16T19:02:37.657Z,85385.84
2023-03-16T19:05:17.350Z,85351.50
2023-03-16T19:07:50.418Z,85357.59
2023-03-16T19:10:29.672Z,85359.72
2023-03-16T19:12:56.662Z,85326.63
2023-03-16T19:15:25.512Z,85389.09
2023-03-16T19:17:52.742Z,85396.59
2023-03-16T19:20:23.175Z,85398.69
2023-03-16T19:22:53.785Z,85397.97
2023-03-16T19:25:32.271Z,85338.31
2023-03-16T19:28:00.235Z,85400.78
2023-03-16T19:30:30.515Z,85350.09
2023-03-16T19:32:58.335Z,85380.94
2023-03-16T19:35:44.662Z,85398.22
2023-03-16T19:38:14.833Z,85339.13
2023-03-16T19:40:42.576Z,85395.53
2023-03-16T19:43:20.604Z,85385.06
2023-03-16T19:45:49.022Z,85390.00
2023-03-16T19:48:33.944Z,85365.91
2023-03-16T19:51:01.432Z,85399.72
2023-03-16T19:53:28.465Z,85399.06
2023-03-16T19:55:55.447Z,85349.53
2023-03-16T19:58:28.317Z,85405.22
2023-03-16T20:00:56.683Z,85380.47
2023-03-16T20:03:23.930Z,85355.06
2023-03-16T20:05:51.028Z,85391.50
2023-03-16T20:08:26.709Z,85410.59
2023-03-16T20:10:59.714Z,85318.56
2023-03-16T20:13:26.870Z,85413.94
2023-03-16T20:15:54.076Z,85425.59
2023-03-16T20:18:21.146Z,85400.13
2023-03-16T20:20:48.130Z,85403.47
2023-03-16T20:23:29.349Z,85428.88
2023-03-16T20:26:02.062Z,85430.94
2023-03-16T20:28:36.336Z,85409.72
2023-03-16T20:31:08.355Z,85429.56
2023-03-16T20:33:35.402Z,85428.28
2023-03-16T20:36:02.377Z,85374.63
2023-03-16T20:38:29.428Z,85316.88
2023-03-16T20:40:56.791Z,85415.72
2023-03-16T20:43:23.914Z,85446.00
2023-03-16T20:45:53.010Z,85425.44
2023-03-16T20:48:20.662Z,85435.72
2023-03-16T20:50:48.373Z,85422.63
2023-03-16T20:53:15.561Z,85450.22
2023-03-16T20:55:43.310Z,85450.91
2023-03-16T20:58:25.731Z,85381.53
2023-03-16T21:00:57.885Z,85458.50
2023-03-16T21:03:27.757Z,85452.38
2023-03-16T21:05:59.346Z,85436.53
2023-03-16T21:08:27.009Z,85461.22
2023-03-16T21:10:56.363Z,85451.66
2023-03-16T21:13:33.892Z,85452.44
2023-03-16T21:16:03.526Z,85425.53
2023-03-16T21:18:30.970Z,85437.94
2023-03-16T21:20:58.988Z,85469.44
2023-03-16T21:23:26.020Z,85460.59
2023-03-16T21:25:54.961Z,85461.94
2023-03-16T21:28:24.361Z,85387.00
2023-03-16T21:30:54.496Z,85436.53
2023-03-16T21:33:33.388Z,85465.41
2023-03-16T21:36:01.723Z,85455.72
2023-03-16T21:38:31.007Z,85474.91
2023-03-16T21:40:59.010Z,85445.31
2023-03-16T21:43:26.961Z,85470.81
2023-03-16T21:45:55.304Z,85457.72
2023-03-16T21:48:30.138Z,85440.53
2023-03-16T21:51:03.566Z,85479.03
2023-03-16T21:53:33.571Z,85407.59
2023-03-16T21:56:00.730Z,85430.94
2023-03-16T21:58:27.706Z,85477.75
2023-03-16T22:00:55.502Z,85382.97
2023-03-16T22:03:50.153Z,85419.38
2023-03-16T22:06:18.159Z,85413.25
2023-03-16T22:08:45.109Z,85475.78
2023-03-16T22:11:24.492Z,85427.72
2023-03-16T22:13:52.542Z,85458.69
2023-03-16T22:16:23.439Z,85465.66
2023-03-16T22:18:53.239Z,85444.38
2023-03-16T22:21:31.454Z,85471.81
2023-03-16T22:23:59.525Z,85460.19
2023-03-16T22:26:28.806Z,85371.59
2023-03-16T22:28:56.660Z,85462.97
2023-03-16T22:31:40.552Z,85460.25
2023-03-16T22:34:19.808Z,85433.44
2023-03-16T22:36:46.822Z,85469.91
2023-03-16T22:39:15.283Z,85447.88
2023-03-16T22:41:42.436Z,85457.56
2023-03-16T22:44:21.385Z,85481.50
2023-03-16T22:46:49.854Z,85447.28
2023-03-16T22:49:27.945Z,85484.25
2023-03-16T22:51:57.577Z,85478.03
2023-03-16T22:54:28.667Z,85462.94
2023-03-16T22:56:55.964Z,85486.94
2023-03-16T22:59:27.033Z,85497.22
2023-03-16T23:01:54.086Z,85504.06
2023-03-16T23:04:24.925Z,85495.19
2023-03-16T23:06:55.736Z,85490.34
2023-03-16T23:09:23.408Z,85515.06
2023-03-16T23:11:54.254Z,85543.69
2023-03-16T23:14:24.535Z,85492.94
2023-03-16T23:16:52.879Z,85479.28
2023-03-16T23:19:34.400Z,85491.63
2023-03-16T23:22:05.084Z,85528.69
2023-03-16T23:24:38.183Z,85515.06
2023-03-16T23:27:14.624Z,85497.16
2023-03-16T23:29:41.794Z,85489.59
2023-03-16T23:32:10.625Z,85499.88
2023-03-16T23:34:37.575Z,85479.00
2023-03-16T23:37:04.538Z,85522.69
2023-03-16T23:39:31.782Z,85528.41
2023-03-16T23:41:59.296Z,85478.31
2023-03-16T23:44:28.727Z,85532.56
2023-03-16T23:46:56.214Z,85530.06
2023-03-16T23:49:30.174Z,85534.94
2023-03-16T23:51:58.672Z,85476.56
2023-03-16T23:54:28.431Z,85515.81
2023-03-16T23:56:56.359Z,85484.19
2023-03-16T23:59:24.832Z,85524.81
